Terminal Aerodrome Forecast
Issued by NWS

Home | Current Version | Previous Version | Text Only | Print | Product List | Glossary On
Versions: 1 2 3 4 5 6 7 8 9 10 11 12 13 14 15 16 17 18 19 20 21 22 23 24 25 26 27 28 29 30 31 32 33 34
000
FTAK31 PAJK 210533
TAFAJN
TAF
PAJN 210533Z 2106/2206 11028G38KT 6SM -RA BR FEW010 OVC035
      WS020/15045KT
      TEMPO 2106/2108 3SM RA BR
     FM210800 11018G28KT 3SM -RA BR FEW008 OVC035 WS015/16035KT
     FM211500 11011KT P6SM -SHRA FEW007 OVC035=

USA.gov is the U.S. government's official web portal to all federal, state and local government web resources and services.